Denzil, Canada
Current Conditions -  °F | °C
As of 9:00 AM on Thursday 23 Oct 2014 (Local Time) from CYKY Reporting Station
Broken Clouds Broken Clouds  
Wind Chill: 41°   Ceiling: 4200
Heat Index: 46°   Visibility: 15mi
Dew Point: 37°   Wind: 13mph
Humidity: 71%   Direction: 160°SSE
Pressure: 29.58"   Gusts: NA
Location:  52.23°N, 109.65°W
Report Text: CYKY 231500Z 16011KT 15SM BKN042 08/03 A2958 RMK SC7 SLP031 DENSITY ALT 2300FT
Loading
Personal Weather Stations






























Interactive Weather Map
Tropical Storm Tracking
New forecast layout! Learn more

10-Day Weather Forecast

Advertisements
Track Severe Weather on mobile